Time;durP1;ratioP1;P1;durP2;ratioP2;P2;SDS_P1;SDS_P2;PMS_P1;PMS_P2;Temp;Humidity;BMP_temperature;BMP_pressure;BME280_temperature;BME280_humidity;BME280_pressure;Samples;Min_cycle;Max_cycle;Signal;HPM_P1;HPM_P2
2023/05/15 00:01:21;;;;;;;8.75;4.90;;;12.80;99.90;;;;;;5044007;28;20505;-88
2023/05/15 00:03:47;;;;;;;5.88;5.28;;;12.90;99.90;;;;;;5043301;28;20037;-88
2023/05/15 00:06:12;;;;;;;8.10;5.65;;;12.90;99.90;;;;;;5043136;28;20818;-88
2023/05/15 00:08:38;;;;;;;9.75;4.80;;;12.90;99.90;;;;;;5044159;28;20032;-86
2023/05/15 00:11:04;;;;;;;6.97;4.97;;;12.80;99.90;;;;;;5041481;28;20057;-86
2023/05/15 00:13:30;;;;;;;8.07;4.90;;;12.90;99.90;;;;;;5041836;28;20029;-88
2023/05/15 00:15:56;;;;;;;7.75;5.28;;;12.90;99.90;;;;;;5027634;28;20045;-86
2023/05/15 00:18:21;;;;;;;5.38;4.57;;;12.90;99.90;;;;;;5046169;28;20063;-88
2023/05/15 00:20:47;;;;;;;5.95;4.75;;;12.90;99.90;;;;;;5047438;28;20682;-87
2023/05/15 00:23:13;;;;;;;5.43;4.30;;;12.90;99.90;;;;;;5044862;28;20064;-88
2023/05/15 00:25:38;;;;;;;5.90;5.00;;;12.90;99.90;;;;;;5045608;28;20036;-87
2023/05/15 00:28:04;;;;;;;4.65;4.10;;;12.90;99.90;;;;;;5046826;28;20434;-88
2023/05/15 00:30:29;;;;;;;6.43;4.55;;;12.90;99.90;;;;;;5028967;28;20517;-87
2023/05/15 00:32:55;;;;;;;5.32;4.40;;;12.90;99.90;;;;;;5046225;28;20049;-87
2023/05/15 00:35:21;;;;;;;5.88;4.53;;;12.90;99.90;;;;;;5045585;28;20041;-87
2023/05/15 00:37:47;;;;;;;10.25;5.47;;;12.90;99.90;;;;;;5027670;28;20037;-87
2023/05/15 00:40:20;;;;;;;10.20;5.30;;;12.90;99.90;;;;;;5046583;28;20056;-88
2023/05/15 00:42:45;;;;;;;6.60;5.15;;;12.90;99.90;;;;;;5039516;28;20822;-86
2023/05/15 00:45:12;;;;;;;7.05;5.22;;;12.80;99.90;;;;;;5030753;28;20041;-88
2023/05/15 00:47:39;;;;;;;12.52;5.53;;;12.80;99.90;;;;;;5044498;28;20058;-87
2023/05/15 00:50:08;;;;;;;6.47;4.82;;;12.70;99.90;;;;;;5042657;28;20478;-86
2023/05/15 00:52:35;;;;;;;15.43;6.40;;;12.70;99.90;;;;;;5043552;28;20106;-87
2023/05/15 00:55:01;;;;;;;15.25;6.00;;;12.70;99.90;;;;;;5047953;28;20032;-88
2023/05/15 00:57:28;;;;;;;11.48;5.97;;;12.60;99.90;;;;;;5046181;28;20025;-89
2023/05/15 00:59:55;;;;;;;12.63;6.18;;;12.60;99.90;;;;;;5043473;28;20588;-87
2023/05/15 01:02:21;;;;;;;11.48;5.45;;;12.60;99.90;;;;;;5043769;28;20083;-88
2023/05/15 01:04:48;;;;;;;12.70;5.95;;;12.50;99.90;;;;;;5044314;28;20041;-88
2023/05/15 01:07:13;;;;;;;8.98;5.25;;;12.50;99.90;;;;;;5049079;28;20052;-87
2023/05/15 01:09:42;;;;;;;12.52;5.32;;;12.50;99.90;;;;;;5044131;28;20056;-86
2023/05/15 01:12:15;;;;;;;6.80;4.93;;;12.50;99.90;;;;;;5040784;28;20580;-86
2023/05/15 01:14:41;;;;;;;8.63;5.00;;;12.40;99.90;;;;;;5044603;28;20041;-88
2023/05/15 01:17:07;;;;;;;6.35;4.72;;;12.40;99.90;;;;;;5043650;28;20036;-87
2023/05/15 01:19:34;;;;;;;5.90;4.95;;;12.50;99.90;;;;;;5047975;28;20490;-88
2023/05/15 01:22:17;;;;;;;8.90;4.90;;;12.40;99.90;;;;;;5041363;28;20389;-88
2023/05/15 01:25:01;;;;;;;22.42;6.43;;;12.40;99.90;;;;;;5045242;28;20067;-88
2023/05/15 01:27:38;;;;;;;9.48;5.85;;;12.40;99.90;;;;;;5038829;28;20124;-89
2023/05/15 01:30:25;;;;;;;12.50;5.50;;;12.40;99.90;;;;;;5041385;28;20077;-87
2023/05/15 01:33:02;;;;;;;22.38;5.30;;;12.30;99.90;;;;;;5044299;28;20040;-88
2023/05/15 01:35:38;;;;;;;10.23;5.50;;;12.30;99.90;;;;;;5046196;28;20513;-88
2023/05/15 01:38:16;;;;;;;19.17;5.07;;;12.30;99.90;;;;;;5045777;28;20045;-88
2023/05/15 01:40:43;;;;;;;11.77;5.13;;;12.30;99.90;;;;;;5042836;28;20774;-88
2023/05/15 01:43:15;;;;;;;14.65;5.90;;;12.20;99.90;;;;;;5044987;28;20041;-88
2023/05/15 01:45:42;;;;;;;12.07;5.75;;;12.20;99.90;;;;;;5043530;28;20028;-88
2023/05/15 01:48:09;;;;;;;7.75;5.82;;;12.20;99.90;;;;;;5043700;28;20032;-88
2023/05/15 01:50:38;;;;;;;10.20;5.43;;;12.20;99.90;;;;;;5042833;28;20049;-88
2023/05/15 01:53:06;;;;;;;6.57;5.10;;;12.20;99.90;;;;;;5046234;28;20063;-88
2023/05/15 01:55:33;;;;;;;17.27;6.47;;;12.20;99.90;;;;;;5045463;28;20271;-88
2023/05/15 01:58:01;;;;;;;9.85;5.00;;;12.20;99.90;;;;;;5041654;28;20075;-87
2023/05/15 02:00:28;;;;;;;13.10;5.90;;;12.20;99.90;;;;;;5029983;28;20041;-88
2023/05/15 02:02:55;;;;;;;12.10;6.07;;;12.20;99.90;;;;;;5045256;28;20100;-87
2023/05/15 02:05:21;;;;;;;9.77;5.82;;;12.20;99.90;;;;;;5020668;28;20044;-88
2023/05/15 02:07:48;;;;;;;10.90;5.95;;;12.20;99.90;;;;;;5040540;28;20071;-88
2023/05/15 02:10:17;;;;;;;10.27;6.22;;;12.20;99.90;;;;;;5022532;28;20048;-88
2023/05/15 02:12:42;;;;;;;8.88;6.15;;;12.20;99.90;;;;;;5037590;28;20071;-88
2023/05/15 02:15:12;;;;;;;11.95;6.40;;;12.20;99.90;;;;;;5042021;28;20071;-86
2023/05/15 02:17:38;;;;;;;9.52;6.30;;;12.20;99.90;;;;;;5045780;28;20041;-87
2023/05/15 02:20:05;;;;;;;9.00;5.93;;;12.20;99.90;;;;;;5044856;28;20041;-88
2023/05/15 02:22:30;;;;;;;9.48;5.40;;;12.20;99.90;;;;;;5044760;28;20033;-88
2023/05/15 02:24:56;;;;;;;11.63;6.07;;;12.20;99.90;;;;;;5045009;28;20405;-88
2023/05/15 02:27:26;;;;;;;8.32;5.95;;;12.20;99.90;;;;;;5044962;28;20041;-88
2023/05/15 02:30:16;;;;;;;12.18;6.25;;;12.20;99.90;;;;;;5042975;28;20034;-88
2023/05/15 02:33:07;;;;;;;7.88;5.18;;;12.20;99.90;;;;;;5044065;28;20065;-88
2023/05/15 02:35:45;;;;;;;8.82;5.88;;;12.20;99.90;;;;;;5042754;28;20059;-88
2023/05/15 02:38:17;;;;;;;7.90;5.03;;;12.20;99.90;;;;;;5042342;28;20048;-88
2023/05/15 02:40:47;;;;;;;7.28;4.40;;;12.20;99.90;;;;;;5040761;28;20037;-87
2023/05/15 02:43:14;;;;;;;8.73;5.82;;;12.20;99.90;;;;;;5041363;28;21309;-88
2023/05/15 02:45:40;;;;;;;9.93;5.97;;;12.20;99.90;;;;;;5045954;28;20043;-88
2023/05/15 02:48:06;;;;;;;8.70;5.82;;;12.20;99.90;;;;;;5043568;28;20033;-88
2023/05/15 02:50:33;;;;;;;12.43;6.05;;;12.20;99.90;;;;;;5044624;28;20448;-88
2023/05/15 02:53:03;;;;;;;7.47;5.63;;;12.20;99.90;;;;;;5043506;28;20037;-87
2023/05/15 02:55:29;;;;;;;11.30;5.32;;;12.20;99.90;;;;;;5040950;28;20457;-88
2023/05/15 02:57:54;;;;;;;9.68;5.60;;;12.10;99.90;;;;;;5043767;28;20049;-86
2023/05/15 03:00:20;;;;;;;11.55;5.32;;;12.10;99.90;;;;;;5042573;28;20048;-88
2023/05/15 03:02:46;;;;;;;17.85;6.38;;;12.10;99.90;;;;;;5042606;28;20033;-88
2023/05/15 03:05:11;;;;;;;10.27;5.88;;;12.10;99.90;;;;;;5042256;28;20044;-87
2023/05/15 03:07:37;;;;;;;8.70;5.22;;;12.10;99.90;;;;;;5037899;28;20029;-87
2023/05/15 03:10:03;;;;;;;9.30;5.45;;;12.10;99.90;;;;;;5049887;28;20040;-88
2023/05/15 03:12:28;;;;;;;14.23;6.18;;;12.10;99.90;;;;;;5049587;28;20052;-88
2023/05/15 03:14:54;;;;;;;13.63;5.38;;;12.10;99.90;;;;;;5043678;28;20072;-88
2023/05/15 03:17:20;;;;;;;12.38;5.57;;;12.00;99.90;;;;;;5046044;28;20060;-89
2023/05/15 03:19:45;;;;;;;6.40;5.25;;;12.00;99.90;;;;;;5047164;28;20025;-88
2023/05/15 03:22:11;;;;;;;8.18;5.40;;;12.00;99.90;;;;;;5053748;28;20488;-88
2023/05/15 03:24:37;;;;;;;9.73;5.32;;;12.00;99.90;;;;;;5044324;28;20037;-87
2023/05/15 03:27:04;;;;;;;6.13;5.03;;;12.00;99.90;;;;;;5041554;28;20116;-89
2023/05/15 03:29:29;;;;;;;7.63;4.97;;;12.00;99.90;;;;;;5044525;28;20056;-88
2023/05/15 03:31:55;;;;;;;8.48;5.40;;;12.00;99.90;;;;;;5021160;28;20083;-88
2023/05/15 03:34:20;;;;;;;8.48;5.50;;;12.00;99.90;;;;;;5044558;28;20090;-89
2023/05/15 03:36:46;;;;;;;7.18;5.18;;;11.90;99.90;;;;;;5029339;28;20067;-88
2023/05/15 03:39:11;;;;;;;6.03;4.78;;;11.90;99.90;;;;;;5046087;28;20037;-88
2023/05/15 03:41:37;;;;;;;5.85;5.20;;;11.90;99.90;;;;;;5049599;28;20032;-88
2023/05/15 03:44:03;;;;;;;6.75;5.03;;;11.90;99.90;;;;;;5033304;28;20040;-88
2023/05/15 03:46:29;;;;;;;10.00;6.07;;;11.90;99.90;;;;;;5046288;28;20043;-87
2023/05/15 03:48:55;;;;;;;9.13;5.55;;;11.80;99.90;;;;;;5044346;28;20119;-89
2023/05/15 03:51:22;;;;;;;7.68;6.13;;;11.80;99.90;;;;;;5045110;28;20140;-88
2023/05/15 03:53:48;;;;;;;10.43;6.35;;;11.70;99.90;;;;;;5039488;28;20040;-88
2023/05/15 03:56:13;;;;;;;10.77;5.90;;;11.70;99.90;;;;;;5041503;28;20104;-89
2023/05/15 03:58:39;;;;;;;9.02;5.80;;;11.70;99.90;;;;;;5043996;28;20131;-88
2023/05/15 04:01:05;;;;;;;8.07;6.03;;;11.60;99.90;;;;;;5045016;28;20040;-89
2023/05/15 04:03:31;;;;;;;6.82;5.43;;;11.60;99.90;;;;;;5045491;28;20037;-87
2023/05/15 04:05:56;;;;;;;10.80;6.05;;;11.60;99.90;;;;;;5046447;28;20044;-89
2023/05/15 04:08:22;;;;;;;7.75;5.53;;;11.60;99.90;;;;;;5039790;28;20490;-88
2023/05/15 04:10:51;;;;;;;8.60;5.22;;;11.50;99.90;;;;;;5039233;28;20087;-89
2023/05/15 04:13:17;;;;;;;12.52;6.30;;;11.50;99.90;;;;;;5049203;28;20405;-90
2023/05/15 04:15:43;;;;;;;7.55;5.75;;;11.50;99.90;;;;;;5040280;28;20033;-89
2023/05/15 04:18:08;;;;;;;7.25;5.05;;;11.50;99.90;;;;;;5045840;28;23069;-89
2023/05/15 04:20:34;;;;;;;7.72;5.72;;;11.50;99.90;;;;;;5045769;28;20039;-89
2023/05/15 04:23:02;;;;;;;8.05;5.57;;;11.60;99.90;;;;;;5044940;28;20115;-89
2023/05/15 04:25:28;;;;;;;11.88;5.88;;;11.60;99.90;;;;;;5043126;28;20056;-89
2023/05/15 04:27:55;;;;;;;9.30;5.20;;;11.50;99.90;;;;;;5040796;28;20319;-87
2023/05/15 04:30:20;;;;;;;7.50;5.75;;;11.60;99.90;;;;;;5042182;28;20049;-89
2023/05/15 04:32:46;;;;;;;7.72;6.20;;;11.60;99.90;;;;;;5040689;28;20117;-89
2023/05/15 04:35:13;;;;;;;7.90;6.20;;;11.60;99.90;;;;;;5039746;28;20056;-89
2023/05/15 04:37:40;;;;;;;7.82;5.45;;;11.60;99.90;;;;;;5023327;28;20078;-88
2023/05/15 04:40:06;;;;;;;10.23;5.60;;;11.60;99.90;;;;;;5042452;28;20041;-87
2023/05/15 04:42:33;;;;;;;9.73;6.32;;;11.70;99.90;;;;;;5040585;28;20031;-86
2023/05/15 04:44:58;;;;;;;9.00;6.15;;;11.70;99.90;;;;;;5041276;28;20029;-89
2023/05/15 04:47:25;;;;;;;9.38;6.15;;;11.70;99.90;;;;;;5020637;28;20032;-89
2023/05/15 04:49:51;;;;;;;7.80;5.60;;;11.70;99.90;;;;;;5038300;28;20069;-88
2023/05/15 04:52:17;;;;;;;9.50;6.70;;;11.70;99.90;;;;;;5034714;28;20133;-88
2023/05/15 04:54:42;;;;;;;8.35;6.63;;;11.70;99.90;;;;;;5037279;28;20061;-89
2023/05/15 04:57:08;;;;;;;12.63;6.15;;;11.70;99.90;;;;;;5021776;28;20710;-88
2023/05/15 04:59:34;;;;;;;9.57;6.00;;;11.80;99.90;;;;;;5035864;28;20459;-88
2023/05/15 05:02:00;;;;;;;10.32;6.50;;;11.80;99.90;;;;;;5042952;28;20129;-88
2023/05/15 05:04:25;;;;;;;18.25;6.57;;;11.90;99.90;;;;;;5041621;28;20039;-87
2023/05/15 05:06:51;;;;;;;13.77;6.45;;;12.00;99.90;;;;;;5027788;28;20032;-88
2023/05/15 05:09:20;;;;;;;11.32;5.40;;;12.10;99.90;;;;;;5034028;28;20071;-87
2023/05/15 05:11:46;;;;;;;7.75;6.10;;;12.10;99.90;;;;;;5061143;28;20048;-87
2023/05/15 05:14:15;;;;;;;13.35;5.75;;;12.20;99.90;;;;;;5050113;28;20064;-88
2023/05/15 05:16:43;;;;;;;21.55;6.88;;;12.30;99.90;;;;;;5056256;28;20110;-88
2023/05/15 05:19:09;;;;;;;9.85;6.35;;;12.40;99.90;;;;;;5052163;28;20487;-87
2023/05/15 05:21:35;;;;;;;11.90;6.15;;;12.50;99.90;;;;;;5026679;28;20061;-87
2023/05/15 05:24:00;;;;;;;12.68;5.55;;;12.60;99.90;;;;;;5053168;28;20041;-88
2023/05/15 05:26:26;;;;;;;6.97;5.65;;;12.60;99.90;;;;;;5049196;28;20409;-87
2023/05/15 05:28:52;;;;;;;9.07;5.78;;;12.70;99.90;;;;;;5047833;28;20321;-88
2023/05/15 05:31:18;;;;;;;7.28;5.00;;;12.70;99.90;;;;;;5046056;28;20098;-87
2023/05/15 05:33:48;;;;;;;6.32;5.25;;;12.80;99.90;;;;;;5046367;28;20273;-86
2023/05/15 05:36:14;;;;;;;6.85;4.57;;;12.90;99.90;;;;;;5027890;28;20388;-87
2023/05/15 05:38:39;;;;;;;10.20;5.47;;;13.00;99.90;;;;;;5045983;28;20449;-87
2023/05/15 05:41:05;;;;;;;7.35;4.90;;;13.10;99.90;;;;;;5046541;28;20067;-88
2023/05/15 05:43:30;;;;;;;7.07;5.25;;;13.10;99.90;;;;;;5044284;28;20044;-88
2023/05/15 05:45:56;;;;;;;6.05;4.38;;;13.30;99.90;;;;;;5046819;28;20071;-87
2023/05/15 05:48:22;;;;;;;10.93;5.65;;;13.30;99.90;;;;;;5025745;28;20457;-87
2023/05/15 05:50:47;;;;;;;11.77;4.82;;;13.40;99.90;;;;;;5042929;28;20520;-86
2023/05/15 05:53:13;;;;;;;7.18;4.65;;;13.50;99.90;;;;;;5045562;28;20040;-87
2023/05/15 05:55:38;;;;;;;8.20;4.53;;;13.50;99.90;;;;;;5042394;28;20427;-86
2023/05/15 05:58:04;;;;;;;8.82;5.25;;;13.70;99.90;;;;;;5046020;28;20068;-87
2023/05/15 06:00:30;;;;;;;8.63;4.75;;;13.70;99.90;;;;;;5044327;28;20037;-86
2023/05/15 06:02:57;;;;;;;17.55;5.65;;;13.80;99.90;;;;;;5044699;28;20041;-86
2023/05/15 06:05:26;;;;;;;11.27;4.97;;;13.90;99.90;;;;;;5026148;28;20119;-85
2023/05/15 06:07:53;;;;;;;12.65;4.80;;;14.00;99.90;;;;;;5026484;28;20486;-86
2023/05/15 06:10:19;;;;;;;9.20;5.10;;;14.00;99.90;;;;;;5044444;28;20179;-86
2023/05/15 06:12:45;;;;;;;7.40;4.40;;;14.10;99.90;;;;;;5041432;28;20552;-85
2023/05/15 06:15:11;;;;;;;11.80;5.47;;;14.20;99.90;;;;;;5041022;28;20112;-87
2023/05/15 06:17:37;;;;;;;13.93;4.63;;;14.30;99.90;;;;;;5044518;28;20425;-86
2023/05/15 06:20:07;;;;;;;14.70;5.60;;;14.30;99.90;;;;;;5042955;28;20351;-85
2023/05/15 06:22:33;;;;;;;10.35;4.82;;;14.40;99.90;;;;;;5042715;28;20075;-85
2023/05/15 06:25:00;;;;;;;12.23;6.03;;;14.50;99.90;;;;;;5040970;28;20489;-86
2023/05/15 06:27:26;;;;;;;19.40;6.47;;;14.50;99.90;;;;;;5045978;28;20044;-88
2023/05/15 06:29:52;;;;;;;11.02;5.20;;;14.50;99.90;;;;;;5046030;28;20474;-85
2023/05/15 06:32:17;;;;;;;11.13;6.35;;;14.50;99.90;;;;;;5043347;28;20037;-86
2023/05/15 06:34:43;;;;;;;10.43;5.10;;;14.50;99.90;;;;;;5041368;28;20079;-86
2023/05/15 06:37:09;;;;;;;22.85;7.65;;;14.50;99.90;;;;;;5042050;28;20033;-85
2023/05/15 06:39:35;;;;;;;17.98;6.80;;;14.50;99.90;;;;;;5040771;28;20517;-87
2023/05/15 06:42:01;;;;;;;16.63;6.90;;;14.50;99.90;;;;;;5043845;28;20029;-87
2023/05/15 06:44:27;;;;;;;13.23;7.38;;;14.60;99.90;;;;;;5034405;28;20036;-89
2023/05/15 06:46:53;;;;;;;26.33;7.78;;;14.60;99.90;;;;;;5039878;28;20486;-89
2023/05/15 06:49:19;;;;;;;17.33;8.52;;;14.60;99.90;;;;;;5042065;28;20100;-86
2023/05/15 06:51:44;;;;;;;18.45;7.85;;;14.60;99.90;;;;;;5040388;28;20344;-86
2023/05/15 06:54:10;;;;;;;14.95;7.18;;;14.70;99.90;;;;;;5043232;28;20037;-86
2023/05/15 06:56:36;;;;;;;15.50;7.35;;;14.70;99.90;;;;;;5043292;28;20118;-85
2023/05/15 06:59:01;;;;;;;12.15;7.03;;;14.70;99.90;;;;;;5045694;28;20474;-86
2023/05/15 07:01:27;;;;;;;22.08;7.30;;;14.70;99.90;;;;;;5041950;28;20039;-86
2023/05/15 07:03:52;;;;;;;10.70;7.18;;;14.70;99.90;;;;;;5040759;28;20476;-86
2023/05/15 07:06:18;;;;;;;18.38;8.07;;;14.70;99.90;;;;;;5042713;28;20041;-85
2023/05/15 07:08:43;;;;;;;21.25;8.10;;;14.70;99.90;;;;;;5043376;28;20035;-87
2023/05/15 07:11:09;;;;;;;14.48;8.73;;;14.70;99.90;;;;;;5042749;28;20072;-86
2023/05/15 07:13:35;;;;;;;16.40;9.27;;;14.70;99.90;;;;;;5038117;28;20029;-87
2023/05/15 07:16:02;;;;;;;13.20;9.27;;;14.60;99.90;;;;;;5039027;28;20061;-85
2023/05/15 07:18:28;;;;;;;14.68;9.05;;;14.60;99.90;;;;;;5041939;28;20107;-86
2023/05/15 07:20:54;;;;;;;15.65;9.13;;;14.60;99.90;;;;;;5025097;28;20037;-86
2023/05/15 07:23:19;;;;;;;19.90;10.07;;;14.60;99.90;;;;;;5042649;28;20442;-85
2023/05/15 07:25:45;;;;;;;22.95;9.88;;;14.60;99.90;;;;;;5040199;28;20713;-84
2023/05/15 07:28:10;;;;;;;23.15;9.48;;;14.60;99.90;;;;;;5044142;28;20053;-85
2023/05/15 07:30:36;;;;;;;15.25;8.32;;;14.60;99.90;;;;;;5039590;28;20118;-87
2023/05/15 07:33:02;;;;;;;18.60;9.02;;;14.60;99.90;;;;;;5039986;28;20037;-85
2023/05/15 07:35:28;;;;;;;20.75;8.43;;;14.60;99.90;;;;;;5022843;28;20037;-85
2023/05/15 07:37:53;;;;;;;19.40;9.52;;;14.60;99.90;;;;;;5039769;28;20469;-86
2023/05/15 07:40:19;;;;;;;15.07;8.48;;;14.60;99.90;;;;;;5037643;28;20037;-84
2023/05/15 07:42:45;;;;;;;16.95;10.05;;;14.70;99.90;;;;;;5040284;28;20424;-86
2023/05/15 07:45:11;;;;;;;16.80;9.52;;;14.70;99.90;;;;;;5040006;28;20071;-85
2023/05/15 07:47:37;;;;;;;11.85;8.43;;;14.80;99.90;;;;;;5041627;28;20770;-84
2023/05/15 07:50:03;;;;;;;15.73;8.80;;;14.80;99.90;;;;;;5040258;28;20104;-86
2023/05/15 07:52:31;;;;;;;18.48;9.95;;;14.80;99.90;;;;;;5043985;28;20086;-86
2023/05/15 07:54:57;;;;;;;18.65;9.43;;;14.90;99.90;;;;;;5043160;28;20044;-85
2023/05/15 07:57:24;;;;;;;13.25;8.57;;;14.80;99.90;;;;;;5043898;28;20396;-85
2023/05/15 07:59:50;;;;;;;14.63;9.07;;;14.90;99.90;;;;;;5041788;28;20040;-83
2023/05/15 08:02:16;;;;;;;11.90;8.73;;;14.90;99.90;;;;;;5043088;28;20033;-88
2023/05/15 08:04:41;;;;;;;14.82;8.95;;;14.90;99.90;;;;;;5044410;28;20100;-86
2023/05/15 08:07:07;;;;;;;19.95;9.65;;;14.90;99.90;;;;;;5045664;28;20037;-86
2023/05/15 08:09:33;;;;;;;25.02;9.25;;;14.90;99.90;;;;;;5044741;28;20112;-85
2023/05/15 08:12:16;;;;;;;17.70;9.60;;;15.00;99.90;;;;;;5042949;28;20063;-85
2023/05/15 08:14:42;;;;;;;19.63;9.45;;;15.10;99.90;;;;;;5042728;28;20037;-85
2023/05/15 08:17:07;;;;;;;15.85;9.10;;;15.10;99.90;;;;;;5031871;28;20036;-85
2023/05/15 08:19:33;;;;;;;13.05;8.85;;;15.30;99.90;;;;;;5043057;28;20040;-85
2023/05/15 08:21:58;;;;;;;12.57;8.07;;;15.30;99.90;;;;;;5043546;28;20052;-84
2023/05/15 08:24:24;;;;;;;18.10;7.55;;;15.30;99.90;;;;;;5041666;28;20119;-87
2023/05/15 08:26:49;;;;;;;11.13;7.40;;;15.40;99.90;;;;;;5044851;28;20535;-85
2023/05/15 08:29:15;;;;;;;16.55;7.70;;;15.40;99.90;;;;;;5045607;28;20378;-86
2023/05/15 08:31:41;;;;;;;13.57;8.30;;;15.40;99.90;;;;;;5025936;28;20083;-86
2023/05/15 08:34:06;;;;;;;20.00;8.75;;;15.60;99.90;;;;;;5042841;28;20127;-85
2023/05/15 08:36:32;;;;;;;12.63;7.00;;;15.70;99.90;;;;;;5046886;28;20106;-85
2023/05/15 08:38:59;;;;;;;12.55;7.13;;;15.90;99.90;;;;;;5046528;28;20036;-86
2023/05/15 08:41:32;;;;;;;16.40;7.95;;;15.90;99.90;;;;;;5043811;28;20107;-87
2023/05/15 08:44:00;;;;;;;19.05;7.78;;;16.00;99.90;;;;;;5049566;28;20393;-86
2023/05/15 08:46:27;;;;;;;14.38;7.97;;;16.10;99.90;;;;;;5047741;28;20037;-86
2023/05/15 08:48:55;;;;;;;19.02;8.38;;;16.20;99.90;;;;;;5046273;28;20064;-84
2023/05/15 08:51:22;;;;;;;19.52;8.63;;;16.30;99.90;;;;;;5047865;28;20048;-87
2023/05/15 08:53:48;;;;;;;14.27;7.82;;;16.40;99.90;;;;;;5047012;28;20095;-87
2023/05/15 08:56:14;;;;;;;18.20;7.50;;;16.60;99.90;;;;;;5024948;28;20065;-86
2023/05/15 08:58:41;;;;;;;12.98;8.20;;;16.60;99.90;;;;;;5038698;28;20033;-85
2023/05/15 09:01:07;;;;;;;22.60;7.97;;;16.70;99.90;;;;;;5046860;28;20063;-84
2023/05/15 09:03:32;;;;;;;13.65;7.95;;;16.70;99.90;;;;;;5044032;28;20043;-84
2023/05/15 09:05:58;;;;;;;15.82;7.45;;;16.80;99.90;;;;;;5044428;28;20033;-85
2023/05/15 09:08:26;;;;;;;14.85;7.22;;;16.90;99.90;;;;;;5034960;28;20046;-86
2023/05/15 09:10:53;;;;;;;18.80;7.00;;;16.90;99.90;;;;;;5036713;28;20045;-82
2023/05/15 09:13:19;;;;;;;13.40;6.30;;;16.90;99.90;;;;;;5044422;28;20029;-88
2023/05/15 09:15:46;;;;;;;11.27;6.45;;;17.00;99.90;;;;;;5048335;28;20084;-87
2023/05/15 09:18:13;;;;;;;12.55;6.20;;;17.20;99.90;;;;;;5044385;28;20032;-86
2023/05/15 09:20:39;;;;;;;19.50;7.43;;;17.20;99.90;;;;;;5039735;28;20040;-85
2023/05/15 09:23:42;;;;;;;12.70;6.60;;;17.30;99.90;;;;;;5040950;28;20099;-86
2023/05/15 09:26:11;;;;;;;17.27;6.63;;;17.40;99.90;;;;;;5024839;28;20127;-85
2023/05/15 09:28:37;;;;;;;14.05;6.47;;;17.50;99.90;;;;;;5039701;28;20545;-90
2023/05/15 09:31:04;;;;;;;16.00;6.65;;;17.50;99.90;;;;;;5041805;28;20132;-84
2023/05/15 09:33:34;;;;;;;14.30;6.60;;;17.40;99.90;;;;;;5038015;28;20041;-88
2023/05/15 09:36:02;;;;;;;15.25;6.25;;;17.40;99.90;;;;;;5048494;28;20055;-89
2023/05/15 09:38:27;;;;;;;12.98;6.15;;;17.30;99.90;;;;;;5045857;28;20316;-85
2023/05/15 09:41:06;;;;;;;18.52;6.20;;;17.30;99.90;;;;;;5042721;28;20120;-86
2023/05/15 09:43:39;;;;;;;10.73;6.13;;;17.50;99.90;;;;;;5046207;28;20041;-84
2023/05/15 09:46:07;;;;;;;11.30;5.95;;;17.50;99.90;;;;;;5048872;28;20039;-83
2023/05/15 09:48:34;;;;;;;10.40;5.78;;;17.60;99.90;;;;;;5045401;28;20399;-83
2023/05/15 09:51:01;;;;;;;8.65;5.60;;;17.70;99.90;;;;;;5042512;28;20049;-84
2023/05/15 09:53:30;;;;;;;16.00;6.00;;;17.70;99.90;;;;;;5042131;28;21052;-85
2023/05/15 09:55:56;;;;;;;17.38;6.18;;;17.70;99.90;;;;;;5047499;28;20125;-84
2023/05/15 09:58:22;;;;;;;14.35;5.85;;;17.80;99.90;;;;;;5046174;28;20119;-84
2023/05/15 10:00:47;;;;;;;9.05;5.45;;;17.80;99.90;;;;;;5045373;28;20041;-84
2023/05/15 10:03:13;;;;;;;8.82;4.75;;;17.80;99.90;;;;;;5043640;28;20048;-83
2023/05/15 10:05:40;;;;;;;14.57;5.38;;;17.80;99.90;;;;;;5044121;28;20043;-85
2023/05/15 10:08:05;;;;;;;18.90;7.70;;;17.80;99.90;;;;;;5046756;28;20087;-86
2023/05/15 10:10:32;;;;;;;12.00;5.45;;;17.80;99.90;;;;;;5042427;28;20053;-83
2023/05/15 10:13:02;;;;;;;12.50;5.88;;;17.80;99.90;;;;;;5043281;28;20040;-83
2023/05/15 10:15:28;;;;;;;9.82;5.80;;;17.90;99.90;;;;;;5044643;28;20037;-87
2023/05/15 10:17:57;;;;;;;11.50;5.35;;;18.00;99.90;;;;;;5042122;28;20397;-86
2023/05/15 10:20:25;;;;;;;12.18;5.90;;;18.00;99.90;;;;;;5043336;28;20071;-85
2023/05/15 10:22:52;;;;;;;18.80;5.25;;;18.10;99.90;;;;;;5043798;28;20041;-84
2023/05/15 10:25:38;;;;;;;10.45;5.57;;;18.20;99.90;;;;;;5045752;28;20130;-83
2023/05/15 10:28:09;;;;;;;8.68;4.65;;;18.20;99.90;;;;;;5040131;28;20045;-81
2023/05/15 10:30:35;;;;;;;8.55;4.95;;;18.10;99.90;;;;;;5043140;28;20417;-84
2023/05/15 10:33:03;;;;;;;11.02;4.88;;;17.90;99.90;;;;;;5043162;28;20487;-84
2023/05/15 10:35:29;;;;;;;8.32;5.05;;;17.80;99.90;;;;;;5042726;28;20095;-83
2023/05/15 10:37:56;;;;;;;14.85;6.30;;;17.80;99.90;;;;;;5046857;28;20068;-85
2023/05/15 10:40:23;;;;;;;14.73;6.28;;;17.90;99.90;;;;;;5038366;28;20061;-85
2023/05/15 10:42:54;;;;;;;12.77;5.57;;;18.10;99.90;;;;;;5036625;28;20048;-85
2023/05/15 10:45:20;;;;;;;11.38;5.30;;;18.20;99.90;;;;;;5043971;28;20025;-87
2023/05/15 10:47:47;;;;;;;10.65;5.20;;;18.30;99.90;;;;;;5013776;28;20037;-84
2023/05/15 10:50:13;;;;;;;15.13;5.38;;;18.40;99.90;;;;;;5041409;28;20441;-85
2023/05/15 10:52:39;;;;;;;13.98;5.00;;;18.50;99.90;;;;;;5040919;28;20033;-82
2023/05/15 10:55:12;;;;;;;25.23;6.25;;;18.50;99.90;;;;;;5037892;28;20490;-83
2023/05/15 10:57:38;;;;;;;12.05;5.75;;;18.60;99.90;;;;;;5023944;28;20044;-84
2023/05/15 11:00:27;;;;;;;11.77;6.43;;;18.60;99.90;;;;;;5046043;28;20520;-84
2023/05/15 11:02:55;;;;;;;14.55;5.90;;;18.50;99.90;;;;;;5023972;28;20087;-83
2023/05/15 11:05:21;;;;;;;8.73;5.05;;;18.40;99.90;;;;;;5045124;28;20029;-82
2023/05/15 11:08:14;;;;;;;9.13;4.90;;;18.30;99.90;;;;;;5043782;28;20136;-83
2023/05/15 11:10:40;;;;;;;12.20;5.13;;;18.20;99.90;;;;;;5028785;28;20045;-85
2023/05/15 11:13:05;;;;;;;10.15;5.47;;;18.20;99.90;;;;;;5045041;28;20044;-83
2023/05/15 11:15:42;;;;;;;15.05;5.25;;;18.20;99.90;;;;;;5025576;28;20398;-83
2023/05/15 11:18:08;;;;;;;13.95;4.65;;;18.20;99.90;;;;;;5043606;28;20033;-83
2023/05/15 11:20:40;;;;;;;13.32;4.55;;;18.20;99.90;;;;;;5044517;28;20041;-83
2023/05/15 11:23:06;;;;;;;10.95;5.68;;;18.20;99.90;;;;;;5024738;28;20098;-82
2023/05/15 11:25:35;;;;;;;12.63;5.70;;;18.40;99.90;;;;;;5044762;28;20037;-84
2023/05/15 11:28:04;;;;;;;7.47;5.43;;;18.50;99.90;;;;;;5046377;28;20036;-83
2023/05/15 11:30:36;;;;;;;13.90;6.47;;;18.60;99.90;;;;;;5042584;28;20037;-93
2023/05/15 11:33:08;;;;;;;12.65;5.47;;;18.80;99.90;;;;;;5042473;28;20036;-83
2023/05/15 11:35:47;;;;;;;12.15;5.40;;;18.90;99.90;;;;;;5043694;28;20029;-83
2023/05/15 11:38:23;;;;;;;8.40;4.75;;;19.00;99.90;;;;;;5042952;28;20033;-83
2023/05/15 11:40:54;;;;;;;11.63;5.28;;;19.10;99.90;;;;;;5043412;28;20095;-82
2023/05/15 11:43:26;;;;;;;14.18;5.50;;;19.20;99.90;;;;;;5042300;28;20037;-83
2023/05/15 11:45:58;;;;;;;12.00;6.47;;;19.10;99.90;;;;;;5027607;28;20138;-82
2023/05/15 11:48:30;;;;;;;10.38;5.78;;;19.20;99.90;;;;;;5045665;28;20041;-84
2023/05/15 11:50:56;;;;;;;12.60;5.10;;;19.20;99.90;;;;;;5044284;28;20053;-82
2023/05/15 11:53:23;;;;;;;15.70;5.55;;;19.20;99.90;;;;;;5039418;28;20033;-84
2023/05/15 11:55:51;;;;;;;11.75;5.80;;;19.20;99.90;;;;;;5039061;28;20040;-83
2023/05/15 11:58:18;;;;;;;15.93;6.10;;;19.20;99.90;;;;;;5025469;28;20040;-83
2023/05/15 12:00:46;;;;;;;7.18;4.60;;;19.30;99.90;;;;;;5045753;28;20098;-83
2023/05/15 12:03:26;;;;;;;12.73;5.78;;;19.30;99.90;;;;;;5044286;28;20037;-85
2023/05/15 12:05:53;;;;;;;9.88;5.85;;;19.20;99.90;;;;;;5016984;28;20041;-84
2023/05/15 12:08:20;;;;;;;11.98;6.05;;;19.20;99.90;;;;;;5038526;28;20438;-82
2023/05/15 12:10:46;;;;;;;12.07;5.63;;;19.00;99.90;;;;;;5041566;28;20056;-83
2023/05/15 12:13:14;;;;;;;10.43;6.25;;;18.90;99.90;;;;;;5043690;28;20037;-82
2023/05/15 12:15:44;;;;;;;11.52;5.18;;;18.80;99.90;;;;;;5041034;28;20106;-82
2023/05/15 12:18:10;;;;;;;25.60;7.10;;;18.90;99.90;;;;;;5045268;28;20123;-83
2023/05/15 12:20:37;;;;;;;10.90;5.13;;;19.20;99.90;;;;;;5040740;28;20041;-83
2023/05/15 12:23:04;;;;;;;16.38;6.32;;;19.20;99.90;;;;;;5040096;28;20179;-84
2023/05/15 12:25:32;;;;;;;12.27;5.40;;;19.30;99.90;;;;;;5044589;28;20040;-83
2023/05/15 12:28:00;;;;;;;13.30;4.57;;;19.50;99.90;;;;;;5048257;28;20090;-83
2023/05/15 12:30:26;;;;;;;7.68;5.13;;;19.60;99.90;;;;;;5041718;28;20030;-84
2023/05/15 12:32:52;;;;;;;21.65;6.15;;;19.70;99.90;;;;;;5037572;28;20112;-83
2023/05/15 12:35:18;;;;;;;14.32;5.22;;;19.70;99.90;;;;;;5034354;28;20152;-82
2023/05/15 12:37:44;;;;;;;17.75;6.10;;;19.60;99.90;;;;;;5038921;28;20039;-83
2023/05/15 12:40:10;;;;;;;12.80;5.22;;;19.60;99.90;;;;;;5037676;28;20040;-84
2023/05/15 12:42:40;;;;;;;17.35;5.47;;;19.60;99.90;;;;;;5019402;28;20056;-83